Time,TemperatureF,DewpointF,PressureIn,WindDirection,WindDirectionDegrees,WindSpeedMPH,WindSpeedGustMPH,Humidity,HourlyPrecipIn,Conditions,Clouds,dailyrainin,SoftwareType,DateUTC
2013-01-26 00:04:00,47.1,24.6,29.62,NW,310,0.0,3.1,41,0.00,,OVC020,0.00,VWS V13.01,2013-01-26 06:04:00,
2013-01-26 00:09:00,47.1,24.6,29.62,NNW,346,0.0,3.1,41,0.00,,OVC020,0.00,VWS V13.01,2013-01-26 06:09:00,
2013-01-26 00:14:00,47.1,24.6,29.62,NNE,19,3.1,3.1,41,0.00,,OVC020,0.00,VWS V13.01,2013-01-26 06:14:00,
2013-01-26 00:19:00,47.1,24.6,29.62,NNW,341,2.7,2.7,41,0.00,,OVC020,0.00,VWS V13.01,2013-01-26 06:19:00,
2013-01-26 00:24:00,47.1,24.6,29.62,NW,315,0.0,2.7,41,0.00,,OVC020,0.00,VWS V13.01,2013-01-26 06:24:00,
2013-01-26 00:29:00,47.1,24.6,29.62,NE,35,0.0,0.0,41,0.00,,OVC020,0.00,VWS V13.01,2013-01-26 06:29:00,
2013-01-26 00:34:00,47.1,24.6,29.59,ENE,73,0.0,0.0,41,0.00,,OVC020,0.00,VWS V13.01,2013-01-26 06:34:00,
2013-01-26 00:39:00,47.1,24.6,29.59,ENE,73,0.0,0.0,41,0.00,,OVC020,0.00,VWS V13.01,2013-01-26 06:39:00,
2013-01-26 00:44:00,47.1,24.6,29.59,ENE,74,0.0,0.0,41,0.00,,OVC023,0.00,VWS V13.01,2013-01-26 06:44:00,
2013-01-26 00:49:00,47.1,24.6,29.59,WNW,295,3.1,3.1,41,0.00,,OVC023,0.00,VWS V13.01,2013-01-26 06:49:00,
2013-01-26 00:54:00,47.1,24.6,29.59,NW,316,2.2,2.2,41,0.00,,OVC023,0.00,VWS V13.01,2013-01-26 06:54:00,
2013-01-26 00:59:00,47.1,24.6,29.59,NW,315,3.6,6.3,41,0.00,,OVC023,0.00,VWS V13.01,2013-01-26 06:59:00,
2013-01-26 01:04:00,47.1,24.6,29.62,NNW,327,3.6,5.8,41,0.00,,OVC023,0.00,VWS V13.01,2013-01-26 07:04:00,
2013-01-26 01:09:00,46.9,24.5,29.62,NNW,335,0.0,0.0,41,0.00,,OVC023,0.00,VWS V13.01,2013-01-26 07:09:00,
2013-01-26 01:14:00,46.9,25.1,29.62,WNW,299,0.0,3.1,42,0.00,,OVC023,0.00,VWS V13.01,2013-01-26 07:14:00,
2013-01-26 01:19:00,46.8,24.9,29.59,NNE,25,0.0,0.0,42,0.00,,OVC023,0.00,VWS V13.01,2013-01-26 07:19:00,
2013-01-26 01:24:00,46.9,25.1,29.59,NNE,25,0.0,0.0,42,0.00,,OVC023,0.00,VWS V13.01,2013-01-26 07:24:00,
2013-01-26 01:29:00,46.9,25.1,29.59,North,357,0.0,2.2,42,0.00,,OVC023,0.00,VWS V13.01,2013-01-26 07:29:00,
2013-01-26 01:34:00,46.9,25.1,29.59,NNW,346,0.0,0.0,42,0.00,,OVC023,0.00,VWS V13.01,2013-01-26 07:34:00,
2013-01-26 01:39:00,46.9,25.6,29.59,NW,319,2.2,3.1,43,0.00,,OVC023,0.00,VWS V13.01,2013-01-26 07:39:00,
2013-01-26 01:44:00,46.9,25.6,29.59,WNW,297,0.0,2.7,43,0.00,,OVC022,0.00,VWS V13.01,2013-01-26 07:44:00,
2013-01-26 01:49:00,46.9,25.6,29.59,NNW,336,3.6,4.0,43,0.00,,OVC022,0.00,VWS V13.01,2013-01-26 07:49:00,
2013-01-26 01:54:00,46.9,25.6,29.59,North,7,2.7,2.7,43,0.00,,OVC022,0.00,VWS V13.01,2013-01-26 07:54:00,
2013-01-26 01:59:00,46.9,26.2,29.59,NNW,341,2.7,3.1,44,0.00,,OVC022,0.00,VWS V13.01,2013-01-26 07:59:00,
2013-01-26 02:04:00,46.9,26.2,29.59,NNW,332,2.2,3.1,44,0.00,,OVC022,0.00,VWS V13.01,2013-01-26 08:04:00,
2013-01-26 02:09:00,46.9,26.2,29.59,NW,316,2.7,2.7,44,0.00,,OVC022,0.00,VWS V13.01,2013-01-26 08:09:00,
2013-01-26 02:14:00,46.8,26.6,29.59,WNW,296,2.7,2.7,45,0.00,,OVC022,0.00,VWS V13.01,2013-01-26 08:14:00,
2013-01-26 02:19:00,46.8,27.1,29.59,NW,314,2.2,2.7,46,0.00,,OVC022,0.00,VWS V13.01,2013-01-26 08:19:00,
2013-01-26 02:24:00,46.8,27.1,29.59,NNW,332,3.1,3.1,46,0.00,,OVC022,0.00,VWS V13.01,2013-01-26 08:24:00,
2013-01-26 02:29:00,46.8,27.6,29.59,WNW,302,0.0,0.0,47,0.00,,OVC022,0.00,VWS V13.01,2013-01-26 08:29:00,
2013-01-26 02:34:00,46.8,27.6,29.59,North,3,0.0,0.0,47,0.00,,OVC022,0.00,VWS V13.01,2013-01-26 08:34:00,
2013-01-26 02:39:00,46.8,27.6,29.59,North,11,0.0,0.0,47,0.00,,OVC022,0.00,VWS V13.01,2013-01-26 08:39:00,
2013-01-26 02:44:00,46.8,27.6,29.59,NNW,340,2.7,2.7,47,0.00,,OVC019,0.00,VWS V13.01,2013-01-26 08:44:00,
2013-01-26 02:49:00,46.8,28.1,29.59,NW,325,0.0,0.0,48,0.00,,OVC019,0.00,VWS V13.01,2013-01-26 08:49:00,
2013-01-26 02:54:00,46.6,28.0,29.59,WNW,301,2.2,2.7,48,0.00,,OVC019,0.00,VWS V13.01,2013-01-26 08:54:00,
2013-01-26 02:59:00,46.6,28.0,29.59,WNW,303,2.7,2.7,48,0.00,,OVC019,0.00,VWS V13.01,2013-01-26 08:59:00,
2013-01-26 03:04:00,46.6,28.5,29.59,NW,306,3.6,3.6,49,0.00,,OVC019,0.00,VWS V13.01,2013-01-26 09:04:00,
2013-01-26 03:09:00,46.4,28.8,29.59,NNE,29,0.0,3.1,50,0.00,,OVC019,0.00,VWS V13.01,2013-01-26 09:09:00,
2013-01-26 03:14:00,46.4,29.3,29.59,NNW,343,2.2,2.7,51,0.00,,OVC019,0.00,VWS V13.01,2013-01-26 09:14:00,
2013-01-26 03:19:00,46.2,29.6,29.59,WNW,302,3.1,4.0,52,0.00,,OVC019,0.00,VWS V13.01,2013-01-26 09:19:00,
2013-01-26 03:24:00,46.0,30.3,29.59,WNW,302,0.0,0.0,54,0.00,,OVC019,0.00,VWS V13.01,2013-01-26 09:24:00,
2013-01-26 03:29:00,45.9,31.1,29.59,NW,321,0.0,0.0,56,0.00,,OVC019,0.00,VWS V13.01,2013-01-26 09:29:00,
2013-01-26 03:34:00,45.9,31.1,29.59,WNW,303,0.0,0.0,56,0.00,,OVC019,0.00,VWS V13.01,2013-01-26 09:34:00,
2013-01-26 03:39:00,45.5,31.2,29.59,NNE,29,0.0,0.0,57,0.00,,OVC019,0.00,VWS V13.01,2013-01-26 09:39:00,
2013-01-26 03:44:00,45.3,31.0,29.59,NNE,30,0.0,0.0,57,0.00,,OVC014,0.00,VWS V13.01,2013-01-26 09:44:00,
2013-01-26 03:49:00,45.3,31.4,29.59,NNE,29,0.0,0.0,58,0.00,,OVC014,0.00,VWS V13.01,2013-01-26 09:49:00,
2013-01-26 03:54:00,45.1,31.7,29.59,NNE,30,0.0,0.0,59,0.00,,OVC014,0.00,VWS V13.01,2013-01-26 09:54:00,
2013-01-26 03:59:00,45.1,32.1,29.59,NNE,30,0.0,0.0,60,0.00,,OVC014,0.00,VWS V13.01,2013-01-26 09:59:00,
2013-01-26 04:04:00,45.3,32.3,29.56,NNE,32,0.0,0.0,60,0.00,,OVC014,0.00,VWS V13.01,2013-01-26 10:04:00,
2013-01-26 04:09:00,45.1,32.5,29.56,NNE,31,0.0,0.0,61,0.00,,OVC014,0.00,VWS V13.01,2013-01-26 10:09:00,
2013-01-26 04:14:00,45.1,32.9,29.56,NNE,25,0.0,0.0,62,0.00,,OVC014,0.00,VWS V13.01,2013-01-26 10:14:00,
2013-01-26 04:19:00,45.0,33.1,29.59,NNE,25,0.0,0.0,63,0.00,,OVC014,0.00,VWS V13.01,2013-01-26 10:19:00,
2013-01-26 04:24:00,45.1,33.7,29.59,NNE,25,0.0,0.0,64,0.00,,OVC014,0.00,VWS V13.01,2013-01-26 10:24:00,
2013-01-26 04:29:00,45.1,33.7,29.59,NW,320,2.2,2.2,64,0.00,,OVC014,0.00,VWS V13.01,2013-01-26 10:29:00,
2013-01-26 04:34:00,45.1,34.1,29.59,North,353,0.0,0.0,65,0.00,,OVC014,0.00,VWS V13.01,2013-01-26 10:34:00,
2013-01-26 04:39:00,45.1,34.5,29.59,NNW,333,0.0,0.0,66,0.00,,OVC014,0.00,VWS V13.01,2013-01-26 10:39:00,
2013-01-26 04:44:00,45.1,34.8,29.59,NW,317,0.0,0.0,67,0.00,,OVC014,0.00,VWS V13.01,2013-01-26 10:44:00,
2013-01-26 04:49:00,45.1,35.2,29.59,North,357,0.0,0.0,68,0.00,,OVC014,0.00,VWS V13.01,2013-01-26 10:49:00,
2013-01-26 04:54:00,45.1,35.2,29.59,North,5,0.0,2.2,68,0.00,,OVC014,0.00,VWS V13.01,2013-01-26 10:54:00,
2013-01-26 04:59:00,45.1,35.6,29.59,NNW,337,0.0,0.0,69,0.00,,OVC014,0.00,VWS V13.01,2013-01-26 10:59:00,
2013-01-26 05:04:00,45.1,36.0,29.59,NW,309,0.0,0.0,70,0.00,,OVC014,0.00,VWS V13.01,2013-01-26 11:04:00,
2013-01-26 05:09:00,45.1,36.0,29.59,NNW,338,0.0,2.2,70,0.00,,OVC014,0.00,VWS V13.01,2013-01-26 11:09:00,
2013-01-26 05:14:00,45.1,36.3,29.59,NE,56,0.0,0.0,71,0.00,,OVC014,0.00,VWS V13.01,2013-01-26 11:14:00,
2013-01-26 05:19:00,45.1,36.3,29.59,NW,318,0.0,0.0,71,0.00,,OVC014,0.00,VWS V13.01,2013-01-26 11:19:00,
2013-01-26 05:24:00,45.1,36.3,29.59,NNW,344,0.0,0.0,71,0.00,,OVC014,0.00,VWS V13.01,2013-01-26 11:24:00,
2013-01-26 05:29:00,45.1,36.7,29.59,NW,311,0.0,2.7,72,0.00,,OVC014,0.00,VWS V13.01,2013-01-26 11:29:00,
2013-01-26 05:34:00,45.1,36.7,29.56,NW,315,0.0,0.0,72,0.00,,OVC014,0.00,VWS V13.01,2013-01-26 11:34:00,
2013-01-26 05:39:00,45.3,36.8,29.56,North,5,0.0,0.0,72,0.00,,OVC014,0.00,VWS V13.01,2013-01-26 11:39:00,
2013-01-26 05:44:00,45.1,37.0,29.56,NNE,28,0.0,0.0,73,0.00,,,0.00,VWS V13.01,2013-01-26 11:44:00,
2013-01-26 05:49:00,45.1,37.0,29.56,NNE,16,0.0,0.0,73,0.00,,,0.00,VWS V13.01,2013-01-26 11:49:00,
2013-01-26 05:54:00,45.1,37.0,29.56,North,5,2.2,2.2,73,0.00,,,0.00,VWS V13.01,2013-01-26 11:54:00,
2013-01-26 05:59:00,45.1,37.0,29.56,NW,310,2.2,2.2,73,0.00,,,0.00,VWS V13.01,2013-01-26 11:59:00,
2013-01-26 06:04:00,45.1,37.0,29.59,NW,317,0.0,2.2,73,0.00,,,0.00,VWS V13.01,2013-01-26 12:04:00,
2013-01-26 06:09:00,45.1,37.4,29.59,NW,318,0.0,2.7,74,0.00,,,0.00,VWS V13.01,2013-01-26 12:09:00,
2013-01-26 06:14:00,45.0,37.2,29.59,NNW,340,0.0,0.0,74,0.00,,,0.00,VWS V13.01,2013-01-26 12:14:00,
2013-01-26 06:19:00,45.0,37.2,29.59,NNW,340,0.0,0.0,74,0.00,,,0.00,VWS V13.01,2013-01-26 12:19:00,
2013-01-26 06:24:00,45.1,37.4,29.59,NW,318,2.2,3.1,74,0.00,,,0.00,VWS V13.01,2013-01-26 12:24:00,
2013-01-26 06:29:00,45.0,37.2,29.59,North,1,3.1,3.1,74,0.00,,,0.00,VWS V13.01,2013-01-26 12:29:00,
2013-01-26 06:34:00,45.0,37.5,29.59,NNW,339,0.0,0.0,75,0.00,,,0.00,VWS V13.01,2013-01-26 12:34:00,
2013-01-26 06:39:00,45.0,37.5,29.59,NNW,330,2.7,2.7,75,0.00,,,0.00,VWS V13.01,2013-01-26 12:39:00,
2013-01-26 06:44:00,45.0,37.5,29.59,NNE,25,0.0,2.2,75,0.00,,,0.00,VWS V13.01,2013-01-26 12:44:00,
2013-01-26 06:49:00,45.0,37.5,29.59,WNW,294,0.0,0.0,75,0.00,,,0.00,VWS V13.01,2013-01-26 12:49:00,
2013-01-26 06:54:00,45.1,37.7,29.59,NNW,329,2.2,2.2,75,0.00,,,0.00,VWS V13.01,2013-01-26 12:54:00,
2013-01-26 06:59:00,45.0,37.9,29.59,NW,320,0.0,0.0,76,0.00,,,0.00,VWS V13.01,2013-01-26 12:59:00,
2013-01-26 07:04:00,45.0,37.9,29.59,NW,312,0.0,0.0,76,0.00,,,0.00,VWS V13.01,2013-01-26 13:04:00,
2013-01-26 07:09:00,45.1,38.0,29.59,NW,313,0.0,0.0,76,0.00,,,0.00,VWS V13.01,2013-01-26 13:09:00,
2013-01-26 07:14:00,45.1,38.0,29.59,NW,316,0.0,0.0,76,0.00,,,0.00,VWS V13.01,2013-01-26 13:14:00,
2013-01-26 07:19:00,45.1,38.0,29.59,NNW,330,0.0,0.0,76,0.00,,,0.00,VWS V13.01,2013-01-26 13:19:00,
2013-01-26 07:24:00,45.1,38.0,29.59,NW,323,0.0,3.1,76,0.00,,,0.00,VWS V13.01,2013-01-26 13:24:00,
2013-01-26 07:29:00,45.3,38.2,29.59,NNW,330,0.0,2.2,76,0.00,,,0.00,VWS V13.01,2013-01-26 13:29:00,
2013-01-26 07:34:00,45.3,38.2,29.59,NW,315,0.0,0.0,76,0.00,,,0.00,VWS V13.01,2013-01-26 13:34:00,
2013-01-26 07:39:00,45.3,38.2,29.59,NW,311,0.0,0.0,76,0.00,,,0.00,VWS V13.01,2013-01-26 13:39:00,
2013-01-26 07:44:00,45.3,38.5,29.59,WNW,293,0.0,0.0,77,0.00,,,0.00,VWS V13.01,2013-01-26 13:44:00,
2013-01-26 07:49:00,45.3,38.5,29.59,NNW,339,0.0,0.0,77,0.00,,,0.00,VWS V13.01,2013-01-26 13:49:00,
2013-01-26 07:54:00,45.5,38.7,29.59,NW,320,0.0,0.0,77,0.00,,,0.00,VWS V13.01,2013-01-26 13:54:00,
2013-01-26 07:59:00,45.5,38.7,29.59,WNW,302,0.0,2.2,77,0.00,,,0.00,VWS V13.01,2013-01-26 13:59:00,
2013-01-26 08:04:00,45.5,38.7,29.59,NW,308,0.0,0.0,77,0.00,,,0.00,VWS V13.01,2013-01-26 14:04:00,
2013-01-26 08:09:00,45.5,38.7,29.59,NW,310,0.0,0.0,77,0.00,,,0.00,VWS V13.01,2013-01-26 14:09:00,
2013-01-26 08:14:00,45.7,38.9,29.59,NW,311,0.0,0.0,77,0.00,,,0.00,VWS V13.01,2013-01-26 14:14:00,
2013-01-26 08:19:00,45.7,38.9,29.59,NW,312,0.0,0.0,77,0.00,,,0.00,VWS V13.01,2013-01-26 14:19:00,
2013-01-26 08:24:00,45.9,39.1,29.59,NW,311,0.0,0.0,77,0.00,,,0.00,VWS V13.01,2013-01-26 14:24:00,
2013-01-26 08:29:00,45.9,39.1,29.59,NNW,328,0.0,0.0,77,0.00,,,0.00,VWS V13.01,2013-01-26 14:29:00,
2013-01-26 08:34:00,46.0,39.2,29.59,North,349,0.0,2.2,77,0.00,,,0.00,VWS V13.01,2013-01-26 14:34:00,
2013-01-26 08:39:00,46.0,39.6,29.59,North,350,0.0,2.2,78,0.00,,,0.00,VWS V13.01,2013-01-26 14:39:00,
2013-01-26 08:44:00,46.0,39.6,29.59,North,2,0.0,0.0,78,0.00,,,0.00,VWS V13.01,2013-01-26 14:44:00,
2013-01-26 08:49:00,46.0,39.6,29.59,NW,326,0.0,0.0,78,0.00,,,0.00,VWS V13.01,2013-01-26 14:49:00,
2013-01-26 08:54:00,46.2,39.8,29.59,NW,313,0.0,0.0,78,0.00,,,0.00,VWS V13.01,2013-01-26 14:54:00,
2013-01-26 08:59:00,46.2,39.8,29.59,NNW,342,0.0,0.0,78,0.00,,,0.00,VWS V13.01,2013-01-26 14:59:00,
2013-01-26 09:04:00,46.4,39.9,29.62,NNE,18,0.0,0.0,78,0.00,,,0.00,VWS V13.01,2013-01-26 15:04:00,
2013-01-26 09:09:00,46.4,39.9,29.62,NNE,18,0.0,0.0,78,0.00,,,0.00,VWS V13.01,2013-01-26 15:09:00,
2013-01-26 09:14:00,46.6,40.1,29.62,NE,35,0.0,0.0,78,0.00,,,0.00,VWS V13.01,2013-01-26 15:14:00,
2013-01-26 09:19:00,46.6,40.1,29.62,NE,35,0.0,0.0,78,0.00,,,0.00,VWS V13.01,2013-01-26 15:19:00,
2013-01-26 09:24:00,46.8,40.3,29.62,NE,35,0.0,0.0,78,0.00,,,0.00,VWS V13.01,2013-01-26 15:24:00,
2013-01-26 09:29:00,46.9,40.5,29.62,WNW,302,0.0,0.0,78,0.00,,,0.00,VWS V13.01,2013-01-26 15:29:00,
2013-01-26 09:34:00,46.8,40.3,29.62,WNW,302,0.0,0.0,78,0.00,,,0.00,VWS V13.01,2013-01-26 15:34:00,
2013-01-26 09:39:00,46.8,40.3,29.62,NW,314,0.0,0.0,78,0.00,,,0.00,VWS V13.01,2013-01-26 15:39:00,
2013-01-26 09:44:00,46.9,40.5,29.62,NW,314,0.0,0.0,78,0.00,,,0.00,VWS V13.01,2013-01-26 15:44:00,
2013-01-26 09:49:00,46.9,40.8,29.62,NNW,334,0.0,0.0,79,0.00,,,0.00,VWS V13.01,2013-01-26 15:49:00,
2013-01-26 09:54:00,47.1,41.0,29.62,NNW,346,0.0,0.0,79,0.00,,,0.00,VWS V13.01,2013-01-26 15:54:00,
2013-01-26 09:59:00,47.1,41.0,29.62,NNE,16,0.0,0.0,79,0.00,,,0.00,VWS V13.01,2013-01-26 15:59:00,
2013-01-26 10:04:00,47.3,41.1,29.62,NNE,30,0.0,0.0,79,0.00,,,0.00,VWS V13.01,2013-01-26 16:04:00,
2013-01-26 10:09:00,47.3,41.1,29.62,NNE,31,0.0,0.0,79,0.00,,,0.00,VWS V13.01,2013-01-26 16:09:00,
2013-01-26 10:14:00,47.5,41.3,29.62,NE,50,0.0,0.0,79,0.00,,,0.00,VWS V13.01,2013-01-26 16:14:00,
2013-01-26 10:19:00,47.5,41.3,29.62,NE,49,0.0,0.0,79,0.00,,,0.00,VWS V13.01,2013-01-26 16:19:00,
2013-01-26 10:24:00,47.7,41.5,29.62,North,11,0.0,0.0,79,0.00,,,0.00,VWS V13.01,2013-01-26 16:24:00,
2013-01-26 10:29:00,47.7,41.5,29.62,NE,54,0.0,0.0,79,0.00,,,0.00,VWS V13.01,2013-01-26 16:29:00,
2013-01-26 10:34:00,48.0,42.2,29.62,East,87,0.0,0.0,80,0.00,,,0.00,VWS V13.01,2013-01-26 16:34:00,
2013-01-26 10:39:00,48.0,42.2,29.62,East,99,0.0,0.0,80,0.00,,,0.00,VWS V13.01,2013-01-26 16:39:00,
2013-01-26 10:44:00,48.0,42.2,29.62,ENE,77,0.0,0.0,80,0.00,,,0.00,VWS V13.01,2013-01-26 16:44:00,
2013-01-26 10:49:00,48.2,42.0,29.62,NNW,337,3.6,3.6,79,0.00,,,0.00,VWS V13.01,2013-01-26 16:49:00,
2013-01-26 10:54:00,48.2,42.0,29.62,East,84,0.0,0.0,79,0.00,,,0.00,VWS V13.01,2013-01-26 16:54:00,
2013-01-26 10:59:00,48.2,42.0,29.62,NNE,22,0.0,0.0,79,0.00,,,0.00,VWS V13.01,2013-01-26 16:59:00,
2013-01-26 11:04:00,48.4,42.2,29.62,NNE,21,0.0,2.7,79,0.00,,,0.00,VWS V13.01,2013-01-26 17:04:00,
2013-01-26 11:09:00,48.6,42.7,29.62,NNE,32,0.0,2.7,80,0.00,,,0.00,VWS V13.01,2013-01-26 17:09:00,
2013-01-26 11:14:00,48.6,42.7,29.62,East,95,0.0,0.0,80,0.00,,,0.00,VWS V13.01,2013-01-26 17:14:00,
2013-01-26 11:19:00,48.6,42.7,29.62,East,81,0.0,0.0,80,0.00,,,0.00,VWS V13.01,2013-01-26 17:19:00,
2013-01-26 11:23:00,48.6,42.7,29.62,East,92,0.0,0.0,80,0.00,,,0.00,VWS V13.01,2013-01-26 17:23:00,
2013-01-26 11:28:00,48.7,42.9,29.62,NE,48,0.0,0.0,80,0.00,,,0.00,VWS V13.01,2013-01-26 17:28:00,
2013-01-26 11:33:00,48.7,42.9,29.62,NE,43,0.0,0.0,80,0.00,,,0.00,VWS V13.01,2013-01-26 17:33:00,
2013-01-26 11:38:00,49.1,43.2,29.62,NE,43,0.0,0.0,80,0.00,,,0.00,VWS V13.01,2013-01-26 17:38:00,
2013-01-26 11:43:00,49.3,43.4,29.62,NNE,17,0.0,3.6,80,0.00,,,0.00,VWS V13.01,2013-01-26 17:43:00,
2013-01-26 11:48:00,49.1,43.2,29.62,ENE,64,0.0,0.0,80,0.00,,,0.00,VWS V13.01,2013-01-26 17:48:00,
2013-01-26 11:53:00,49.1,43.2,29.62,East,81,0.0,0.0,80,0.00,,,0.00,VWS V13.01,2013-01-26 17:53:00,
2013-01-26 11:58:00,49.1,43.2,29.62,ENE,61,0.0,0.0,80,0.00,,,0.00,VWS V13.01,2013-01-26 17:58:00,
2013-01-26 12:03:00,49.1,43.2,29.62,NE,56,0.0,0.0,80,0.00,,,0.00,VWS V13.01,2013-01-26 18:03:00,
2013-01-26 12:08:00,49.1,43.2,29.62,NNW,339,0.0,0.0,80,0.00,,,0.00,VWS V13.01,2013-01-26 18:08:00,
2013-01-26 12:13:00,49.1,43.2,29.62,NNE,20,0.0,0.0,80,0.00,,,0.00,VWS V13.01,2013-01-26 18:13:00,
2013-01-26 12:18:00,49.3,43.4,29.62,ENE,71,0.0,0.0,80,0.00,,,0.00,VWS V13.01,2013-01-26 18:18:00,
2013-01-26 12:23:00,49.5,43.6,29.62,NNE,24,0.0,0.0,80,0.00,,,0.00,VWS V13.01,2013-01-26 18:23:00,
2013-01-26 12:28:00,49.6,43.7,29.62,ENE,78,0.0,0.0,80,0.00,,,0.00,VWS V13.01,2013-01-26 18:28:00,
2013-01-26 12:33:00,49.6,43.7,29.59,NE,34,0.0,0.0,80,0.00,,,0.00,VWS V13.01,2013-01-26 18:33:00,
2013-01-26 12:38:00,49.6,43.7,29.59,East,91,0.0,0.0,80,0.00,,,0.00,VWS V13.01,2013-01-26 18:38:00,
2013-01-26 12:43:00,50.0,44.1,29.59,NNE,32,0.0,0.0,80,0.00,,,0.00,VWS V13.01,2013-01-26 18:43:00,
2013-01-26 12:48:00,49.8,43.9,29.59,East,82,0.0,0.0,80,0.00,,,0.00,VWS V13.01,2013-01-26 18:48:00,
2013-01-26 12:53:00,49.6,43.7,29.59,East,83,0.0,0.0,80,0.00,,,0.00,VWS V13.01,2013-01-26 18:53:00,
2013-01-26 12:58:00,49.6,43.7,29.59,ENE,74,0.0,0.0,80,0.00,,,0.00,VWS V13.01,2013-01-26 18:58:00,
2013-01-26 13:03:00,49.8,43.9,29.59,East,92,0.0,0.0,80,0.00,,,0.00,VWS V13.01,2013-01-26 19:03:00,
2013-01-26 13:08:00,49.8,43.9,29.59,ESE,108,0.0,0.0,80,0.00,,,0.00,VWS V13.01,2013-01-26 19:08:00,
2013-01-26 13:13:00,50.0,44.1,29.59,East,97,0.0,0.0,80,0.00,,,0.00,VWS V13.01,2013-01-26 19:13:00,
2013-01-26 13:18:00,49.8,43.9,29.59,East,89,2.2,2.7,80,0.00,,,0.00,VWS V13.01,2013-01-26 19:18:00,
2013-01-26 13:23:00,49.8,43.9,29.59,ENE,70,0.0,0.0,80,0.00,,,0.00,VWS V13.01,2013-01-26 19:23:00,
2013-01-26 13:28:00,49.8,43.9,29.59,ENE,57,0.0,0.0,80,0.00,,,0.00,VWS V13.01,2013-01-26 19:28:00,
2013-01-26 13:33:00,50.0,44.1,29.56,ESE,109,0.0,0.0,80,0.00,,,0.00,VWS V13.01,2013-01-26 19:33:00,
2013-01-26 13:38:00,50.2,44.3,29.56,East,100,0.0,0.0,80,0.00,,,0.00,VWS V13.01,2013-01-26 19:38:00,
2013-01-26 13:43:00,50.4,44.4,29.56,East,92,0.0,0.0,80,0.00,,,0.00,VWS V13.01,2013-01-26 19:43:00,
2013-01-26 13:48:00,50.7,44.8,29.56,NE,54,0.0,0.0,80,0.00,,,0.00,VWS V13.01,2013-01-26 19:48:00,
2013-01-26 13:53:00,51.1,45.1,29.56,East,101,0.0,3.6,80,0.00,,OVC015,0.00,VWS V13.01,2013-01-26 19:53:00,
2013-01-26 13:58:00,51.4,45.5,29.56,NE,41,0.0,0.0,80,0.00,,OVC015,0.00,VWS V13.01,2013-01-26 19:58:00,
2013-01-26 14:03:00,51.4,45.5,29.56,ENE,64,0.0,0.0,80,0.00,,OVC015,0.00,VWS V13.01,2013-01-26 20:03:00,
2013-01-26 14:08:00,51.6,45.3,29.56,East,86,0.0,0.0,79,0.00,,OVC015,0.00,VWS V13.01,2013-01-26 20:08:00,
2013-01-26 14:13:00,51.6,45.3,29.56,ENE,63,0.0,3.1,79,0.00,,OVC015,0.00,VWS V13.01,2013-01-26 20:13:00,
2013-01-26 14:18:00,51.6,45.0,29.56,East,97,2.7,3.1,78,0.00,,OVC015,0.00,VWS V13.01,2013-01-26 20:18:00,
2013-01-26 14:23:00,51.4,44.5,29.56,ESE,112,0.0,0.0,77,0.00,,OVC015,0.00,VWS V13.01,2013-01-26 20:23:00,
2013-01-26 14:28:00,51.4,44.1,29.56,East,84,0.0,0.0,76,0.00,,OVC015,0.00,VWS V13.01,2013-01-26 20:28:00,
2013-01-26 14:33:00,51.6,44.0,29.53,ENE,73,3.6,3.6,75,0.00,,OVC015,0.00,VWS V13.01,2013-01-26 20:33:00,
2013-01-26 14:38:00,51.6,44.0,29.53,East,89,0.0,0.0,75,0.00,,OVC015,0.00,VWS V13.01,2013-01-26 20:38:00,
2013-01-26 14:43:00,51.6,43.6,29.53,North,11,2.7,2.7,74,0.00,,OVC015,0.00,VWS V13.01,2013-01-26 20:43:00,
2013-01-26 14:48:00,51.6,43.3,29.53,NE,56,2.2,2.2,73,0.00,,OVC015,0.00,VWS V13.01,2013-01-26 20:48:00,
2013-01-26 14:53:00,51.6,42.9,29.53,NNE,19,0.0,3.6,72,0.00,,OVC015,0.00,VWS V13.01,2013-01-26 20:53:00,
2013-01-26 14:58:00,51.6,42.2,29.53,ESE,115,0.0,4.0,70,0.00,,OVC015,0.00,VWS V13.01,2013-01-26 20:58:00,
2013-01-26 15:03:00,51.6,42.2,29.56,NNE,13,2.7,2.7,70,0.00,,OVC015,0.00,VWS V13.01,2013-01-26 21:03:00,
2013-01-26 15:08:00,51.6,41.8,29.56,ENE,68,0.0,0.0,69,0.00,,OVC015,0.00,VWS V13.01,2013-01-26 21:08:00,
2013-01-26 15:13:00,51.4,41.2,29.56,NNE,30,2.7,2.7,68,0.00,,OVC015,0.00,VWS V13.01,2013-01-26 21:13:00,
2013-01-26 15:18:00,51.3,40.7,29.56,East,98,0.0,0.0,67,0.00,,OVC015,0.00,VWS V13.01,2013-01-26 21:18:00,
2013-01-26 15:23:00,51.1,40.1,29.56,East,97,0.0,0.0,66,0.00,,OVC015,0.00,VWS V13.01,2013-01-26 21:23:00,
2013-01-26 15:28:00,50.9,40.0,29.56,NE,47,0.0,0.0,66,0.00,,OVC015,0.00,VWS V13.01,2013-01-26 21:28:00,
2013-01-26 15:33:00,50.9,40.0,29.56,NE,41,0.0,2.2,66,0.00,,OVC015,0.00,VWS V13.01,2013-01-26 21:33:00,
2013-01-26 15:38:00,50.7,39.4,29.56,ENE,65,3.1,3.1,65,0.00,,OVC015,0.00,VWS V13.01,2013-01-26 21:38:00,
2013-01-26 15:43:00,50.7,39.4,29.56,ESE,103,0.0,2.2,65,0.00,,OVC023,0.00,VWS V13.01,2013-01-26 21:43:00,
2013-01-26 15:48:00,50.7,39.4,29.56,ENE,59,0.0,2.2,65,0.00,,OVC023,0.00,VWS V13.01,2013-01-26 21:48:00,
2013-01-26 15:53:00,50.7,39.4,29.56,East,81,0.0,0.0,65,0.00,,OVC023,0.00,VWS V13.01,2013-01-26 21:53:00,
2013-01-26 15:58:00,50.7,39.4,29.56,East,87,0.0,0.0,65,0.00,,OVC023,0.00,VWS V13.01,2013-01-26 21:58:00,
2013-01-26 16:03:00,50.7,39.4,29.53,East,97,0.0,0.0,65,0.00,,OVC023,0.00,VWS V13.01,2013-01-26 22:03:00,
2013-01-26 16:08:00,50.7,39.4,29.53,ENE,75,0.0,0.0,65,0.00,,OVC023,0.00,VWS V13.01,2013-01-26 22:08:00,
2013-01-26 16:13:00,50.7,39.4,29.53,ENE,58,0.0,0.0,65,0.00,,OVC023,0.00,VWS V13.01,2013-01-26 22:13:00,
2013-01-26 16:18:00,50.7,39.4,29.53,SE,129,0.0,2.2,65,0.00,,OVC023,0.00,VWS V13.01,2013-01-26 22:18:00,
2013-01-26 16:23:00,50.7,39.4,29.53,ENE,67,2.7,3.1,65,0.00,,OVC023,0.00,VWS V13.01,2013-01-26 22:23:00,
2013-01-26 16:28:00,50.5,39.2,29.53,SE,127,4.0,6.3,65,0.00,,OVC023,0.00,VWS V13.01,2013-01-26 22:28:00,
2013-01-26 16:33:00,50.5,39.2,29.53,ENE,76,0.0,0.0,65,0.00,,OVC009,0.00,VWS V13.01,2013-01-26 22:33:00,
2013-01-26 16:38:00,50.5,39.2,29.53,East,94,0.0,0.0,65,0.00,,OVC009,0.00,VWS V13.01,2013-01-26 22:38:00,
2013-01-26 16:43:00,50.5,39.2,29.53,NE,56,0.0,0.0,65,0.00,,OVC009,0.00,VWS V13.01,2013-01-26 22:43:00,
2013-01-26 16:48:00,50.7,39.4,29.53,NNE,30,0.0,4.0,65,0.00,,OVC009,0.00,VWS V13.01,2013-01-26 22:48:00,
2013-01-26 16:53:00,50.5,39.2,29.53,East,88,0.0,2.7,65,0.00,,OVC009,0.00,VWS V13.01,2013-01-26 22:53:00,
2013-01-26 16:58:00,50.5,39.2,29.53,East,81,0.0,0.0,65,0.00,,OVC009,0.00,VWS V13.01,2013-01-26 22:58:00,
2013-01-26 17:03:00,50.4,39.1,29.53,East,91,0.0,0.0,65,0.00,,OVC009,0.00,VWS V13.01,2013-01-26 23:03:00,
2013-01-26 17:08:00,50.4,39.1,29.53,ENE,63,0.0,0.0,65,0.00,,OVC009,0.00,VWS V13.01,2013-01-26 23:08:00,
2013-01-26 17:13:00,50.4,39.1,29.53,East,97,0.0,0.0,65,0.00,,OVC009,0.00,VWS V13.01,2013-01-26 23:13:00,
2013-01-26 17:18:00,50.5,39.2,29.56,East,88,0.0,0.0,65,0.00,,OVC009,0.00,VWS V13.01,2013-01-26 23:18:00,
2013-01-26 17:23:00,50.5,39.2,29.56,East,84,2.7,2.7,65,0.00,,OVC009,0.00,VWS V13.01,2013-01-26 23:23:00,
2013-01-26 17:28:00,50.4,39.1,29.56,East,87,4.9,4.9,65,0.00,,OVC009,0.00,VWS V13.01,2013-01-26 23:28:00,
2013-01-26 17:33:00,50.2,38.9,29.56,East,100,0.0,3.6,65,0.00,,OVC009,0.00,VWS V13.01,2013-01-26 23:33:00,
2013-01-26 17:38:00,50.2,38.9,29.56,East,100,0.0,0.0,65,0.00,,OVC009,0.00,VWS V13.01,2013-01-26 23:38:00,
2013-01-26 17:43:00,50.0,38.7,29.56,NE,55,3.1,4.0,65,0.00,,OVC018,0.00,VWS V13.01,2013-01-26 23:43:00,
2013-01-26 17:48:00,50.0,38.7,29.53,ESE,103,0.0,3.6,65,0.00,,OVC018,0.00,VWS V13.01,2013-01-26 23:48:00,
2013-01-26 17:53:00,49.8,38.9,29.53,East,80,0.0,2.2,66,0.00,,OVC018,0.00,VWS V13.01,2013-01-26 23:53:00,
2013-01-26 17:58:00,49.8,38.9,29.53,East,85,3.1,3.6,66,0.00,,OVC018,0.00,VWS V13.01,2013-01-26 23:58:00,
2013-01-26 18:03:00,49.8,39.3,29.53,East,85,0.0,2.2,67,0.00,,OVC018,0.00,VWS V13.01,2013-01-27 00:03:00,
2013-01-26 18:08:00,49.6,39.2,29.53,ENE,65,3.6,5.4,67,0.00,,OVC018,0.00,VWS V13.01,2013-01-27 00:08:00,
2013-01-26 18:13:00,49.6,39.5,29.53,North,357,2.2,3.6,68,0.00,,OVC018,0.00,VWS V13.01,2013-01-27 00:13:00,
2013-01-26 18:18:00,49.5,39.3,29.53,NE,48,2.7,2.7,68,0.00,,OVC018,0.00,VWS V13.01,2013-01-27 00:18:00,
2013-01-26 18:23:00,49.5,39.3,29.53,NE,46,0.0,2.2,68,0.00,,OVC018,0.00,VWS V13.01,2013-01-27 00:23:00,
2013-01-26 18:28:00,49.6,39.9,29.53,East,85,0.0,0.0,69,0.00,,OVC018,0.00,VWS V13.01,2013-01-27 00:28:00,
2013-01-26 18:33:00,49.5,39.7,29.53,East,83,0.0,3.1,69,0.00,,OVC018,0.00,VWS V13.01,2013-01-27 00:33:00,
2013-01-26 18:38:00,49.5,39.7,29.53,ENE,69,0.0,0.0,69,0.00,,OVC018,0.00,VWS V13.01,2013-01-27 00:38:00,
2013-01-26 18:43:00,49.5,39.7,29.53,ENE,61,5.8,5.8,69,0.00,,OVC008,0.00,VWS V13.01,2013-01-27 00:43:00,
2013-01-26 18:48:00,49.5,40.1,29.56,ESE,117,0.0,0.0,70,0.00,,OVC008,0.00,VWS V13.01,2013-01-27 00:48:00,
2013-01-26 18:53:00,49.5,40.1,29.56,East,84,0.0,0.0,70,0.00,,OVC008,0.00,VWS V13.01,2013-01-27 00:53:00,
2013-01-26 18:58:00,49.5,40.1,29.56,East,91,0.0,2.2,70,0.00,,OVC008,0.00,VWS V13.01,2013-01-27 00:58:00,
2013-01-26 19:03:00,49.3,40.3,29.53,NE,46,2.2,3.1,71,0.00,,OVC008,0.00,VWS V13.01,2013-01-27 01:03:00,
2013-01-26 19:08:00,49.3,40.3,29.53,ESE,102,0.0,0.0,71,0.00,,OVC008,0.00,VWS V13.01,2013-01-27 01:08:00,
2013-01-26 19:13:00,49.5,40.5,29.53,East,91,0.0,0.0,71,0.00,,OVC008,0.00,VWS V13.01,2013-01-27 01:13:00,
2013-01-26 19:18:00,49.5,40.5,29.56,NE,51,0.0,0.0,71,0.00,,OVC008,0.00,VWS V13.01,2013-01-27 01:18:00,
2013-01-26 19:23:00,49.5,40.8,29.56,ENE,64,0.0,0.0,72,0.00,,OVC008,0.00,VWS V13.01,2013-01-27 01:23:00,
2013-01-26 19:28:00,49.5,40.8,29.56,NE,35,0.0,0.0,72,0.00,,OVC008,0.00,VWS V13.01,2013-01-27 01:28:00,
2013-01-26 19:33:00,49.5,40.8,29.56,ENE,74,0.0,0.0,72,0.00,,OVC008,0.00,VWS V13.01,2013-01-27 01:33:00,
2013-01-26 19:38:00,49.3,40.7,29.56,NNE,18,0.0,0.0,72,0.00,,OVC008,0.00,VWS V13.01,2013-01-27 01:38:00,
2013-01-26 19:43:00,49.3,40.7,29.56,NE,34,0.0,0.0,72,0.00,,OVC006,0.00,VWS V13.01,2013-01-27 01:43:00,
2013-01-26 19:48:00,49.3,40.7,29.56,ENE,59,0.0,0.0,72,0.00,,OVC006,0.00,VWS V13.01,2013-01-27 01:48:00,
2013-01-26 19:53:00,49.3,41.0,29.56,NE,34,2.7,2.7,73,0.00,,OVC006,0.00,VWS V13.01,2013-01-27 01:53:00,
2013-01-26 19:58:00,49.3,41.0,29.56,ENE,70,0.0,0.0,73,0.00,,OVC006,0.00,VWS V13.01,2013-01-27 01:58:00,
2013-01-26 20:03:00,49.1,40.8,29.53,NNE,20,2.2,2.7,73,0.00,,OVC006,0.00,VWS V13.01,2013-01-27 02:03:00,
2013-01-26 20:08:00,49.1,40.8,29.53,NNE,20,2.7,2.7,73,0.00,,OVC006,0.00,VWS V13.01,2013-01-27 02:08:00,
2013-01-26 20:13:00,49.1,40.8,29.53,NE,38,0.0,0.0,73,0.00,,OVC006,0.00,VWS V13.01,2013-01-27 02:13:00,
2013-01-26 20:18:00,49.1,40.8,29.56,NNE,15,0.0,2.7,73,0.00,,OVC006,0.00,VWS V13.01,2013-01-27 02:18:00,
2013-01-26 20:23:00,49.1,40.8,29.56,NNE,16,0.0,2.2,73,0.00,,OVC006,0.00,VWS V13.01,2013-01-27 02:23:00,
2013-01-26 20:28:00,49.1,40.8,29.56,ENE,69,0.0,0.0,73,0.00,,OVC006,0.00,VWS V13.01,2013-01-27 02:28:00,
2013-01-26 20:33:00,49.1,40.8,29.53,NE,54,0.0,0.0,73,0.00,,OVC006,0.00,VWS V13.01,2013-01-27 02:33:00,
2013-01-26 20:38:00,49.3,41.4,29.53,ENE,57,0.0,0.0,74,0.00,,OVC006,0.00,VWS V13.01,2013-01-27 02:38:00,
2013-01-26 20:43:00,49.3,41.4,29.53,NE,47,2.2,4.0,74,0.00,,,0.00,VWS V13.01,2013-01-27 02:43:00,
2013-01-26 20:48:00,49.3,41.4,29.53,NNE,33,2.7,3.1,74,0.00,,,0.00,VWS V13.01,2013-01-27 02:48:00,
2013-01-26 20:53:00,49.3,41.4,29.53,ESE,105,0.0,0.0,74,0.00,,,0.00,VWS V13.01,2013-01-27 02:53:00,
2013-01-26 20:58:00,49.3,41.4,29.53,NE,39,0.0,0.0,74,0.00,,,0.00,VWS V13.01,2013-01-27 02:58:00,
2013-01-26 21:03:00,49.3,41.4,29.53,East,98,0.0,0.0,74,0.00,,,0.00,VWS V13.01,2013-01-27 03:03:00,
2013-01-26 21:08:00,49.3,41.4,29.53,ENE,69,0.0,0.0,74,0.00,,,0.00,VWS V13.01,2013-01-27 03:08:00,
2013-01-26 21:13:00,49.3,41.4,29.53,NNE,30,0.0,0.0,74,0.00,,,0.00,VWS V13.01,2013-01-27 03:13:00,
2013-01-26 21:18:00,49.3,41.4,29.53,NE,38,0.0,2.2,74,0.00,,,0.00,VWS V13.01,2013-01-27 03:18:00,
2013-01-26 21:23:00,49.3,41.4,29.53,East,85,2.7,2.7,74,0.00,,,0.00,VWS V13.01,2013-01-27 03:23:00,
2013-01-26 21:28:00,49.3,41.0,29.53,East,98,0.0,4.0,73,0.00,,,0.00,VWS V13.01,2013-01-27 03:28:00,
2013-01-26 21:33:00,49.3,41.0,29.53,East,83,0.0,0.0,73,0.00,,,0.00,VWS V13.01,2013-01-27 03:33:00,
2013-01-26 21:38:00,49.3,41.0,29.53,East,90,0.0,0.0,73,0.00,,,0.00,VWS V13.01,2013-01-27 03:38:00,
2013-01-26 21:43:00,49.3,41.0,29.53,East,81,0.0,0.0,73,0.00,,,0.00,VWS V13.01,2013-01-27 03:43:00,
2013-01-26 21:48:00,49.3,41.0,29.53,ENE,61,4.0,4.0,73,0.00,,,0.00,VWS V13.01,2013-01-27 03:48:00,
2013-01-26 21:53:00,49.3,41.0,29.53,ENE,58,0.0,2.7,73,0.00,,,0.00,VWS V13.01,2013-01-27 03:53:00,
2013-01-26 21:58:00,49.1,40.8,29.53,East,82,0.0,0.0,73,0.00,,,0.00,VWS V13.01,2013-01-27 03:58:00,
2013-01-26 22:03:00,49.1,40.8,29.53,East,98,0.0,0.0,73,0.00,,,0.00,VWS V13.01,2013-01-27 04:03:00,
2013-01-26 22:08:00,49.1,40.8,29.53,NE,54,0.0,3.1,73,0.00,,,0.00,VWS V13.01,2013-01-27 04:08:00,
2013-01-26 22:13:00,48.9,40.7,29.53,ENE,73,2.7,3.1,73,0.00,,,0.00,VWS V13.01,2013-01-27 04:13:00,
2013-01-26 22:18:00,48.9,40.7,29.53,ENE,72,0.0,0.0,73,0.00,,,0.00,VWS V13.01,2013-01-27 04:18:00,
2013-01-26 22:23:00,48.9,40.7,29.53,ESE,105,0.0,2.7,73,0.00,,,0.00,VWS V13.01,2013-01-27 04:23:00,
2013-01-26 22:28:00,48.7,40.5,29.53,ENE,76,3.1,3.1,73,0.00,,,0.00,VWS V13.01,2013-01-27 04:28:00,
2013-01-26 22:33:00,48.7,40.5,29.53,ENE,73,0.0,0.0,73,0.00,,,0.00,VWS V13.01,2013-01-27 04:33:00,
2013-01-26 22:38:00,48.7,40.5,29.53,SE,133,0.0,2.7,73,0.00,,,0.00,VWS V13.01,2013-01-27 04:38:00,
2013-01-26 22:43:00,48.7,40.5,29.53,ENE,78,0.0,0.0,73,0.00,,OVC004,0.00,VWS V13.01,2013-01-27 04:43:00,
2013-01-26 22:48:00,48.7,40.8,29.53,East,97,2.7,3.6,74,0.00,,OVC004,0.00,VWS V13.01,2013-01-27 04:48:00,
2013-01-26 22:53:00,48.7,40.8,29.53,East,80,0.0,0.0,74,0.00,,OVC004,0.00,VWS V13.01,2013-01-27 04:53:00,
2013-01-26 22:58:00,48.7,40.8,29.53,NE,36,2.7,2.7,74,0.00,,OVC004,0.00,VWS V13.01,2013-01-27 04:58:00,
2013-01-26 23:00:00,48.7,40.8,29.53,ENE,62,0.0,0.0,74,0.00,,OVC004,0.00,VWS V13.01,2013-01-27 05:00:00,
2013-01-26 23:02:00,48.7,40.8,29.53,ENE,67,5.8,5.8,74,0.00,,OVC004,0.00,VWS V13.01,2013-01-27 05:02:00,
2013-01-26 23:07:00,48.7,40.8,29.53,NNW,345,2.2,2.2,74,0.00,,OVC004,0.00,VWS V13.01,2013-01-27 05:07:00,
2013-01-26 23:12:00,48.6,40.7,29.53,ENE,57,2.2,2.2,74,0.00,,OVC004,0.00,VWS V13.01,2013-01-27 05:12:00,
2013-01-26 23:17:00,48.6,40.7,29.53,ENE,70,0.0,0.0,74,0.00,,OVC004,0.00,VWS V13.01,2013-01-27 05:17:00,
2013-01-26 23:22:00,48.6,40.7,29.53,East,97,0.0,0.0,74,0.00,,OVC004,0.00,VWS V13.01,2013-01-27 05:22:00,
2013-01-26 23:27:00,48.6,40.7,29.53,East,84,0.0,0.0,74,0.00,,OVC004,0.00,VWS V13.01,2013-01-27 05:27:00,
2013-01-26 23:32:00,48.6,41.0,29.53,East,79,0.0,2.7,75,0.00,,OVC004,0.00,VWS V13.01,2013-01-27 05:32:00,
2013-01-26 23:37:00,48.6,41.0,29.53,ENE,69,0.0,0.0,75,0.00,,OVC004,0.00,VWS V13.01,2013-01-27 05:37:00,
2013-01-26 23:42:00,48.6,41.0,29.53,ENE,69,0.0,0.0,75,0.00,,,0.00,VWS V13.01,2013-01-27 05:42:00,
2013-01-26 23:47:00,48.6,41.0,29.53,East,88,2.7,2.7,75,0.00,,,0.00,VWS V13.01,2013-01-27 05:47:00,
2013-01-26 23:52:00,48.6,41.0,29.53,ENE,62,0.0,0.0,75,0.00,,,0.00,VWS V13.01,2013-01-27 05:52:00,
2013-01-26 23:57:00,48.6,41.0,29.53,ESE,116,4.9,4.9,75,0.00,,,0.00,VWS V13.01,2013-01-27 05:57:00,